sensor_id;sensor_type;location;lat;lon;timestamp;P1;durP1;ratioP1;P2;durP2;ratioP2
14348;SDS011;7258;50.376;8.742;2023-04-24T00:01:17;2.53;;;2.23;;
14348;SDS011;7258;50.376;8.742;2023-04-24T00:03:26;2.67;;;2.40;;
14348;SDS011;7258;50.376;8.742;2023-04-24T00:05:35;5.27;;;2.60;;
14348;SDS011;7258;50.376;8.742;2023-04-24T00:07:50;2.63;;;2.40;;
14348;SDS011;7258;50.376;8.742;2023-04-24T00:09:54;2.90;;;2.60;;
14348;SDS011;7258;50.376;8.742;2023-04-24T00:12:00;2.97;;;2.17;;
14348;SDS011;7258;50.376;8.742;2023-04-24T00:14:09;2.57;;;2.27;;
14348;SDS011;7258;50.376;8.742;2023-04-24T00:16:21;2.53;;;2.23;;
14348;SDS011;7258;50.376;8.742;2023-04-24T00:18:29;4.23;;;2.27;;
14348;SDS011;7258;50.376;8.742;2023-04-24T00:20:32;5.67;;;2.67;;
14348;SDS011;7258;50.376;8.742;2023-04-24T00:22:40;3.27;;;2.33;;
14348;SDS011;7258;50.376;8.742;2023-04-24T00:24:49;5.07;;;2.47;;
14348;SDS011;7258;50.376;8.742;2023-04-24T00:26:52;2.30;;;2.00;;
14348;SDS011;7258;50.376;8.742;2023-04-24T00:28:55;2.40;;;2.20;;
14348;SDS011;7258;50.376;8.742;2023-04-24T00:31:04;2.47;;;1.97;;
14348;SDS011;7258;50.376;8.742;2023-04-24T00:33:07;2.20;;;2.00;;
14348;SDS011;7258;50.376;8.742;2023-04-24T00:35:10;2.67;;;2.00;;
14348;SDS011;7258;50.376;8.742;2023-04-24T00:37:18;2.10;;;1.90;;
14348;SDS011;7258;50.376;8.742;2023-04-24T00:39:26;2.07;;;1.87;;
14348;SDS011;7258;50.376;8.742;2023-04-24T00:41:43;2.40;;;2.20;;
14348;SDS011;7258;50.376;8.742;2023-04-24T00:43:47;1.97;;;1.73;;
14348;SDS011;7258;50.376;8.742;2023-04-24T00:45:50;1.70;;;1.60;;
14348;SDS011;7258;50.376;8.742;2023-04-24T00:47:53;2.10;;;2.00;;
14348;SDS011;7258;50.376;8.742;2023-04-24T00:49:56;2.00;;;1.77;;
14348;SDS011;7258;50.376;8.742;2023-04-24T00:52:01;2.10;;;1.90;;
14348;SDS011;7258;50.376;8.742;2023-04-24T00:54:10;2.77;;;2.10;;
14348;SDS011;7258;50.376;8.742;2023-04-24T00:56:16;4.10;;;2.10;;
14348;SDS011;7258;50.376;8.742;2023-04-24T00:58:20;2.27;;;1.77;;
14348;SDS011;7258;50.376;8.742;2023-04-24T01:00:23;2.03;;;1.80;;
14348;SDS011;7258;50.376;8.742;2023-04-24T01:02:31;3.90;;;1.90;;
14348;SDS011;7258;50.376;8.742;2023-04-24T01:04:41;2.47;;;1.80;;
14348;SDS011;7258;50.376;8.742;2023-04-24T01:06:44;2.77;;;2.00;;
14348;SDS011;7258;50.376;8.742;2023-04-24T01:08:53;2.27;;;1.80;;
14348;SDS011;7258;50.376;8.742;2023-04-24T01:11:04;2.33;;;1.80;;
14348;SDS011;7258;50.376;8.742;2023-04-24T01:13:15;3.03;;;1.73;;
14348;SDS011;7258;50.376;8.742;2023-04-24T01:15:31;2.40;;;1.60;;
14348;SDS011;7258;50.376;8.742;2023-04-24T01:17:39;3.30;;;1.60;;
14348;SDS011;7258;50.376;8.742;2023-04-24T01:19:52;1.70;;;1.60;;
14348;SDS011;7258;50.376;8.742;2023-04-24T01:21:56;2.87;;;1.67;;
14348;SDS011;7258;50.376;8.742;2023-04-24T01:24:13;2.87;;;2.00;;
14348;SDS011;7258;50.376;8.742;2023-04-24T01:26:23;2.80;;;1.70;;
14348;SDS011;7258;50.376;8.742;2023-04-24T01:28:29;2.20;;;1.73;;
14348;SDS011;7258;50.376;8.742;2023-04-24T01:30:39;2.60;;;1.57;;
14348;SDS011;7258;50.376;8.742;2023-04-24T01:32:45;2.37;;;1.50;;
14348;SDS011;7258;50.376;8.742;2023-04-24T01:34:51;2.63;;;1.67;;
14348;SDS011;7258;50.376;8.742;2023-04-24T01:37:02;3.67;;;1.97;;
14348;SDS011;7258;50.376;8.742;2023-04-24T01:39:11;3.03;;;1.67;;
14348;SDS011;7258;50.376;8.742;2023-04-24T01:41:20;1.87;;;1.73;;
14348;SDS011;7258;50.376;8.742;2023-04-24T01:43:28;3.07;;;1.90;;
14348;SDS011;7258;50.376;8.742;2023-04-24T01:45:31;2.57;;;1.73;;
14348;SDS011;7258;50.376;8.742;2023-04-24T01:47:40;2.30;;;1.83;;
14348;SDS011;7258;50.376;8.742;2023-04-24T01:49:44;4.83;;;1.73;;
14348;SDS011;7258;50.376;8.742;2023-04-24T01:51:59;2.07;;;1.80;;
14348;SDS011;7258;50.376;8.742;2023-04-24T01:54:02;2.70;;;1.70;;
14348;SDS011;7258;50.376;8.742;2023-04-24T01:56:09;3.07;;;1.60;;
14348;SDS011;7258;50.376;8.742;2023-04-24T01:58:17;4.03;;;1.70;;
14348;SDS011;7258;50.376;8.742;2023-04-24T02:00:33;2.10;;;1.47;;
14348;SDS011;7258;50.376;8.742;2023-04-24T02:02:37;5.83;;;1.80;;
14348;SDS011;7258;50.376;8.742;2023-04-24T02:04:56;1.77;;;1.67;;
14348;SDS011;7258;50.376;8.742;2023-04-24T02:07:11;2.07;;;1.63;;
14348;SDS011;7258;50.376;8.742;2023-04-24T02:09:21;4.00;;;2.07;;
14348;SDS011;7258;50.376;8.742;2023-04-24T02:11:34;5.37;;;1.90;;
14348;SDS011;7258;50.376;8.742;2023-04-24T02:13:49;3.63;;;2.00;;
14348;SDS011;7258;50.376;8.742;2023-04-24T02:15:52;2.80;;;1.70;;
14348;SDS011;7258;50.376;8.742;2023-04-24T02:17:55;3.47;;;1.93;;
14348;SDS011;7258;50.376;8.742;2023-04-24T02:19:58;2.30;;;1.80;;
14348;SDS011;7258;50.376;8.742;2023-04-24T02:22:03;3.73;;;1.87;;
14348;SDS011;7258;50.376;8.742;2023-04-24T02:24:06;2.70;;;2.00;;
14348;SDS011;7258;50.376;8.742;2023-04-24T02:26:09;3.00;;;1.77;;
14348;SDS011;7258;50.376;8.742;2023-04-24T02:28:13;3.40;;;1.83;;
14348;SDS011;7258;50.376;8.742;2023-04-24T02:30:17;4.23;;;1.97;;
14348;SDS011;7258;50.376;8.742;2023-04-24T02:32:21;2.83;;;2.20;;
14348;SDS011;7258;50.376;8.742;2023-04-24T02:34:26;3.13;;;2.20;;
14348;SDS011;7258;50.376;8.742;2023-04-24T02:36:30;3.07;;;2.20;;
14348;SDS011;7258;50.376;8.742;2023-04-24T02:38:33;3.57;;;2.50;;
14348;SDS011;7258;50.376;8.742;2023-04-24T02:40:36;3.13;;;2.83;;
14348;SDS011;7258;50.376;8.742;2023-04-24T02:42:39;4.33;;;3.33;;
14348;SDS011;7258;50.376;8.742;2023-04-24T02:44:42;3.67;;;3.30;;
14348;SDS011;7258;50.376;8.742;2023-04-24T02:46:51;5.13;;;3.60;;
14348;SDS011;7258;50.376;8.742;2023-04-24T02:48:56;5.80;;;3.67;;
14348;SDS011;7258;50.376;8.742;2023-04-24T02:51:13;5.70;;;3.50;;
14348;SDS011;7258;50.376;8.742;2023-04-24T02:53:19;5.03;;;4.40;;
14348;SDS011;7258;50.376;8.742;2023-04-24T02:55:27;7.17;;;4.97;;
14348;SDS011;7258;50.376;8.742;2023-04-24T02:57:30;5.27;;;4.67;;
14348;SDS011;7258;50.376;8.742;2023-04-24T02:59:33;7.17;;;5.20;;
14348;SDS011;7258;50.376;8.742;2023-04-24T03:01:41;6.70;;;5.40;;
14348;SDS011;7258;50.376;8.742;2023-04-24T03:03:51;7.03;;;5.87;;
14348;SDS011;7258;50.376;8.742;2023-04-24T03:06:02;6.90;;;6.20;;
14348;SDS011;7258;50.376;8.742;2023-04-24T03:08:13;6.57;;;5.97;;
14348;SDS011;7258;50.376;8.742;2023-04-24T03:10:29;7.23;;;6.63;;
14348;SDS011;7258;50.376;8.742;2023-04-24T03:12:40;8.27;;;7.20;;
14348;SDS011;7258;50.376;8.742;2023-04-24T03:14:54;9.00;;;7.27;;
14348;SDS011;7258;50.376;8.742;2023-04-24T03:17:20;11.40;;;8.10;;
14348;SDS011;7258;50.376;8.742;2023-04-24T03:19:32;8.47;;;7.80;;
14348;SDS011;7258;50.376;8.742;2023-04-24T03:21:38;9.77;;;8.10;;
14348;SDS011;7258;50.376;8.742;2023-04-24T03:23:44;8.97;;;8.10;;
14348;SDS011;7258;50.376;8.742;2023-04-24T03:25:51;8.97;;;8.07;;
14348;SDS011;7258;50.376;8.742;2023-04-24T03:28:00;10.07;;;7.50;;
14348;SDS011;7258;50.376;8.742;2023-04-24T03:30:11;8.10;;;7.40;;
14348;SDS011;7258;50.376;8.742;2023-04-24T03:32:14;7.73;;;6.70;;
14348;SDS011;7258;50.376;8.742;2023-04-24T03:34:33;6.93;;;6.10;;
14348;SDS011;7258;50.376;8.742;2023-04-24T03:36:50;10.37;;;5.60;;
14348;SDS011;7258;50.376;8.742;2023-04-24T03:39:10;5.77;;;5.20;;
14348;SDS011;7258;50.376;8.742;2023-04-24T03:41:13;5.30;;;4.87;;
14348;SDS011;7258;50.376;8.742;2023-04-24T03:43:30;7.03;;;4.87;;
14348;SDS011;7258;50.376;8.742;2023-04-24T03:45:39;4.40;;;4.00;;
14348;SDS011;7258;50.376;8.742;2023-04-24T03:47:49;4.20;;;3.77;;
14348;SDS011;7258;50.376;8.742;2023-04-24T03:50:01;2.70;;;2.50;;
14348;SDS011;7258;50.376;8.742;2023-04-24T03:52:19;2.70;;;2.50;;
14348;SDS011;7258;50.376;8.742;2023-04-24T03:54:26;2.53;;;2.20;;
14348;SDS011;7258;50.376;8.742;2023-04-24T03:56:36;2.03;;;1.80;;
14348;SDS011;7258;50.376;8.742;2023-04-24T03:58:44;1.90;;;1.80;;
14348;SDS011;7258;50.376;8.742;2023-04-24T04:00:48;2.33;;;2.00;;
14348;SDS011;7258;50.376;8.742;2023-04-24T04:02:52;1.70;;;1.60;;
14348;SDS011;7258;50.376;8.742;2023-04-24T04:04:57;2.97;;;1.60;;
14348;SDS011;7258;50.376;8.742;2023-04-24T04:07:22;1.80;;;1.70;;
14348;SDS011;7258;50.376;8.742;2023-04-24T04:09:31;1.80;;;1.70;;
14348;SDS011;7258;50.376;8.742;2023-04-24T04:11:35;1.93;;;1.70;;
14348;SDS011;7258;50.376;8.742;2023-04-24T04:13:38;3.13;;;1.70;;
14348;SDS011;7258;50.376;8.742;2023-04-24T04:15:42;3.57;;;1.77;;
14348;SDS011;7258;50.376;8.742;2023-04-24T04:17:45;1.80;;;1.70;;
14348;SDS011;7258;50.376;8.742;2023-04-24T04:19:48;2.33;;;1.60;;
14348;SDS011;7258;50.376;8.742;2023-04-24T04:21:57;1.93;;;1.83;;
14348;SDS011;7258;50.376;8.742;2023-04-24T04:24:00;1.70;;;1.60;;
14348;SDS011;7258;50.376;8.742;2023-04-24T04:26:10;2.20;;;2.00;;
14348;SDS011;7258;50.376;8.742;2023-04-24T04:28:14;2.10;;;1.63;;
14348;SDS011;7258;50.376;8.742;2023-04-24T04:30:17;2.13;;;2.00;;
14348;SDS011;7258;50.376;8.742;2023-04-24T04:32:22;3.07;;;1.50;;
14348;SDS011;7258;50.376;8.742;2023-04-24T04:34:27;2.23;;;1.80;;
14348;SDS011;7258;50.376;8.742;2023-04-24T04:36:39;1.87;;;1.60;;
14348;SDS011;7258;50.376;8.742;2023-04-24T04:38:49;2.00;;;1.80;;
14348;SDS011;7258;50.376;8.742;2023-04-24T04:41:02;1.90;;;1.70;;
14348;SDS011;7258;50.376;8.742;2023-04-24T04:43:06;2.20;;;2.00;;
14348;SDS011;7258;50.376;8.742;2023-04-24T04:45:09;1.70;;;1.60;;
14348;SDS011;7258;50.376;8.742;2023-04-24T04:47:13;1.80;;;1.70;;
14348;SDS011;7258;50.376;8.742;2023-04-24T04:49:17;1.83;;;1.73;;
14348;SDS011;7258;50.376;8.742;2023-04-24T04:51:27;1.77;;;1.67;;
14348;SDS011;7258;50.376;8.742;2023-04-24T04:53:30;1.90;;;1.80;;
14348;SDS011;7258;50.376;8.742;2023-04-24T04:55:34;2.33;;;2.00;;
14348;SDS011;7258;50.376;8.742;2023-04-24T04:57:38;1.80;;;1.70;;
14348;SDS011;7258;50.376;8.742;2023-04-24T04:59:41;1.80;;;1.70;;
14348;SDS011;7258;50.376;8.742;2023-04-24T05:01:45;2.13;;;1.93;;
14348;SDS011;7258;50.376;8.742;2023-04-24T05:03:50;1.60;;;1.50;;
14348;SDS011;7258;50.376;8.742;2023-04-24T05:05:54;2.10;;;2.00;;
14348;SDS011;7258;50.376;8.742;2023-04-24T05:07:56;1.73;;;1.60;;
14348;SDS011;7258;50.376;8.742;2023-04-24T05:09:59;1.80;;;1.70;;
14348;SDS011;7258;50.376;8.742;2023-04-24T05:12:04;2.40;;;2.20;;
14348;SDS011;7258;50.376;8.742;2023-04-24T05:14:07;2.70;;;1.90;;
14348;SDS011;7258;50.376;8.742;2023-04-24T05:16:19;2.20;;;2.00;;
14348;SDS011;7258;50.376;8.742;2023-04-24T05:18:22;1.90;;;1.70;;
14348;SDS011;7258;50.376;8.742;2023-04-24T05:20:25;2.27;;;1.80;;
14348;SDS011;7258;50.376;8.742;2023-04-24T05:22:27;3.23;;;2.10;;
14348;SDS011;7258;50.376;8.742;2023-04-24T05:24:30;3.33;;;2.10;;
14348;SDS011;7258;50.376;8.742;2023-04-24T05:26:34;2.63;;;2.10;;
14348;SDS011;7258;50.376;8.742;2023-04-24T05:28:40;3.23;;;1.80;;
14348;SDS011;7258;50.376;8.742;2023-04-24T05:30:50;2.10;;;1.90;;
14348;SDS011;7258;50.376;8.742;2023-04-24T05:32:53;3.57;;;2.17;;
14348;SDS011;7258;50.376;8.742;2023-04-24T05:35:02;2.37;;;2.17;;
14348;SDS011;7258;50.376;8.742;2023-04-24T05:37:09;3.63;;;2.23;;
14348;SDS011;7258;50.376;8.742;2023-04-24T05:39:12;2.40;;;2.20;;
14348;SDS011;7258;50.376;8.742;2023-04-24T05:41:36;2.30;;;2.07;;
14348;SDS011;7258;50.376;8.742;2023-04-24T05:43:45;2.97;;;1.93;;
14348;SDS011;7258;50.376;8.742;2023-04-24T05:45:50;2.10;;;1.90;;
14348;SDS011;7258;50.376;8.742;2023-04-24T05:48:08;1.97;;;1.77;;
14348;SDS011;7258;50.376;8.742;2023-04-24T05:53:13;2.07;;;1.97;;
14348;SDS011;7258;50.376;8.742;2023-04-24T05:55:25;2.23;;;2.03;;
14348;SDS011;7258;50.376;8.742;2023-04-24T05:58:42;2.67;;;1.93;;
14348;SDS011;7258;50.376;8.742;2023-04-24T06:03:57;3.30;;;2.20;;
14348;SDS011;7258;50.376;8.742;2023-04-24T06:06:14;2.20;;;2.00;;
14348;SDS011;7258;50.376;8.742;2023-04-24T06:08:41;1.80;;;1.70;;
14348;SDS011;7258;50.376;8.742;2023-04-24T06:13:20;2.87;;;2.00;;
14348;SDS011;7258;50.376;8.742;2023-04-24T06:15:28;2.50;;;2.30;;
14348;SDS011;7258;50.376;8.742;2023-04-24T06:17:41;2.60;;;2.40;;
14348;SDS011;7258;50.376;8.742;2023-04-24T06:20:02;4.13;;;2.77;;
14348;SDS011;7258;50.376;8.742;2023-04-24T06:22:18;2.83;;;2.20;;
14348;SDS011;7258;50.376;8.742;2023-04-24T06:24:21;3.63;;;2.30;;
14348;SDS011;7258;50.376;8.742;2023-04-24T06:26:38;3.30;;;2.70;;
14348;SDS011;7258;50.376;8.742;2023-04-24T06:28:50;4.57;;;2.50;;
14348;SDS011;7258;50.376;8.742;2023-04-24T06:31:10;2.60;;;2.40;;
14348;SDS011;7258;50.376;8.742;2023-04-24T06:33:51;3.00;;;2.60;;
14348;SDS011;7258;50.376;8.742;2023-04-24T06:38:31;2.70;;;2.50;;
14348;SDS011;7258;50.376;8.742;2023-04-24T06:40:43;2.80;;;2.60;;
14348;SDS011;7258;50.376;8.742;2023-04-24T06:42:58;2.77;;;2.23;;
14348;SDS011;7258;50.376;8.742;2023-04-24T06:45:20;2.90;;;2.50;;
14348;SDS011;7258;50.376;8.742;2023-04-24T06:47:40;2.63;;;2.30;;
14348;SDS011;7258;50.376;8.742;2023-04-24T06:52:14;2.87;;;2.67;;
14348;SDS011;7258;50.376;8.742;2023-04-24T06:54:38;4.50;;;2.80;;
14348;SDS011;7258;50.376;8.742;2023-04-24T06:57:33;3.10;;;2.53;;
14348;SDS011;7258;50.376;8.742;2023-04-24T06:59:50;4.33;;;3.10;;
14348;SDS011;7258;50.376;8.742;2023-04-24T07:02:10;3.73;;;3.43;;
14348;SDS011;7258;50.376;8.742;2023-04-24T07:04:19;3.60;;;3.27;;
14348;SDS011;7258;50.376;8.742;2023-04-24T07:06:40;3.70;;;3.40;;
14348;SDS011;7258;50.376;8.742;2023-04-24T07:09:06;4.10;;;3.70;;
14348;SDS011;7258;50.376;8.742;2023-04-24T07:11:58;3.57;;;3.10;;
14348;SDS011;7258;50.376;8.742;2023-04-24T07:14:06;5.13;;;3.13;;
14348;SDS011;7258;50.376;8.742;2023-04-24T07:16:24;3.30;;;3.00;;
14348;SDS011;7258;50.376;8.742;2023-04-24T07:18:41;6.80;;;3.30;;
14348;SDS011;7258;50.376;8.742;2023-04-24T07:21:00;4.10;;;3.43;;
14348;SDS011;7258;50.376;8.742;2023-04-24T07:23:19;2.90;;;2.70;;
14348;SDS011;7258;50.376;8.742;2023-04-24T07:25:36;3.23;;;3.03;;
14348;SDS011;7258;50.376;8.742;2023-04-24T07:27:45;3.47;;;3.27;;
14348;SDS011;7258;50.376;8.742;2023-04-24T07:29:56;3.20;;;2.90;;
14348;SDS011;7258;50.376;8.742;2023-04-24T07:31:59;5.20;;;3.20;;
14348;SDS011;7258;50.376;8.742;2023-04-24T07:34:12;2.90;;;2.70;;
14348;SDS011;7258;50.376;8.742;2023-04-24T07:36:34;3.87;;;2.83;;
14348;SDS011;7258;50.376;8.742;2023-04-24T07:41:09;3.40;;;2.50;;
14348;SDS011;7258;50.376;8.742;2023-04-24T07:43:22;2.43;;;2.23;;
14348;SDS011;7258;50.376;8.742;2023-04-24T07:45:25;2.80;;;2.60;;
14348;SDS011;7258;50.376;8.742;2023-04-24T07:47:45;2.63;;;2.33;;
14348;SDS011;7258;50.376;8.742;2023-04-24T07:49:52;2.95;;;2.33;;
14348;SDS011;7258;50.376;8.742;2023-04-24T07:52:10;2.70;;;2.50;;
14348;SDS011;7258;50.376;8.742;2023-04-24T07:54:25;2.63;;;2.42;;
14348;SDS011;7258;50.376;8.742;2023-04-24T07:57:10;2.75;;;2.55;;
14348;SDS011;7258;50.376;8.742;2023-04-24T07:59:22;3.23;;;2.53;;
14348;SDS011;7258;50.376;8.742;2023-04-24T08:01:38;2.90;;;2.53;;
14348;SDS011;7258;50.376;8.742;2023-04-24T08:03:42;2.92;;;2.40;;
14348;SDS011;7258;50.376;8.742;2023-04-24T08:06:02;2.40;;;2.20;;
14348;SDS011;7258;50.376;8.742;2023-04-24T08:08:09;2.40;;;2.20;;
14348;SDS011;7258;50.376;8.742;2023-04-24T08:10:28;2.50;;;2.30;;
14348;SDS011;7258;50.376;8.742;2023-04-24T08:12:39;2.35;;;2.20;;
14348;SDS011;7258;50.376;8.742;2023-04-24T08:14:48;3.53;;;2.70;;
14348;SDS011;7258;50.376;8.742;2023-04-24T08:16:54;2.50;;;2.30;;
14348;SDS011;7258;50.376;8.742;2023-04-24T08:19:00;2.30;;;2.20;;
14348;SDS011;7258;50.376;8.742;2023-04-24T08:21:08;2.53;;;2.33;;
14348;SDS011;7258;50.376;8.742;2023-04-24T08:23:17;3.42;;;2.55;;
14348;SDS011;7258;50.376;8.742;2023-04-24T08:25:40;4.80;;;2.20;;
14348;SDS011;7258;50.376;8.742;2023-04-24T08:27:44;4.00;;;2.25;;
14348;SDS011;7258;50.376;8.742;2023-04-24T08:30:14;2.50;;;2.30;;
14348;SDS011;7258;50.376;8.742;2023-04-24T08:32:20;2.28;;;2.08;;
14348;SDS011;7258;50.376;8.742;2023-04-24T08:34:31;1.95;;;1.85;;
14348;SDS011;7258;50.376;8.742;2023-04-24T08:36:35;2.30;;;2.10;;
14348;SDS011;7258;50.376;8.742;2023-04-24T08:38:59;2.25;;;2.00;;
14348;SDS011;7258;50.376;8.742;2023-04-24T08:41:33;2.38;;;2.03;;
14348;SDS011;7258;50.376;8.742;2023-04-24T08:43:37;2.45;;;2.20;;
14348;SDS011;7258;50.376;8.742;2023-04-24T08:45:55;3.50;;;2.10;;
14348;SDS011;7258;50.376;8.742;2023-04-24T08:48:03;2.03;;;1.90;;
14348;SDS011;7258;50.376;8.742;2023-04-24T08:50:28;1.90;;;1.80;;
14348;SDS011;7258;50.376;8.742;2023-04-24T08:52:32;2.00;;;1.90;;
14348;SDS011;7258;50.376;8.742;2023-04-24T08:54:58;1.80;;;1.65;;
14348;SDS011;7258;50.376;8.742;2023-04-24T08:57:10;2.33;;;2.13;;
14348;SDS011;7258;50.376;8.742;2023-04-24T08:59:37;4.07;;;1.90;;
14348;SDS011;7258;50.376;8.742;2023-04-24T09:02:42;3.00;;;2.13;;
14348;SDS011;7258;50.376;8.742;2023-04-24T09:05:27;1.98;;;1.85;;
14348;SDS011;7258;50.376;8.742;2023-04-24T09:07:36;1.98;;;1.80;;
14348;SDS011;7258;50.376;8.742;2023-04-24T09:10:19;1.80;;;1.70;;
14348;SDS011;7258;50.376;8.742;2023-04-24T09:12:45;1.90;;;1.80;;
14348;SDS011;7258;50.376;8.742;2023-04-24T09:15:57;3.20;;;1.77;;
14348;SDS011;7258;50.376;8.742;2023-04-24T09:18:12;1.98;;;1.55;;
14348;SDS011;7258;50.376;8.742;2023-04-24T09:20:29;1.75;;;1.65;;
14348;SDS011;7258;50.376;8.742;2023-04-24T09:22:33;1.70;;;1.60;;
14348;SDS011;7258;50.376;8.742;2023-04-24T09:24:39;1.70;;;1.60;;
14348;SDS011;7258;50.376;8.742;2023-04-24T09:27:08;2.00;;;1.90;;
14348;SDS011;7258;50.376;8.742;2023-04-24T09:32:41;1.80;;;1.70;;
14348;SDS011;7258;50.376;8.742;2023-04-24T09:35:04;1.80;;;1.70;;
14348;SDS011;7258;50.376;8.742;2023-04-24T09:40:07;1.92;;;1.83;;
14348;SDS011;7258;50.376;8.742;2023-04-24T09:42:46;2.30;;;1.48;;
14348;SDS011;7258;50.376;8.742;2023-04-24T09:45:16;1.40;;;1.30;;
14348;SDS011;7258;50.376;8.742;2023-04-24T09:47:45;2.60;;;1.67;;
14348;SDS011;7258;50.376;8.742;2023-04-24T09:50:08;1.40;;;1.30;;
14348;SDS011;7258;50.376;8.742;2023-04-24T09:52:45;1.77;;;1.38;;
14348;SDS011;7258;50.376;8.742;2023-04-24T09:55:10;1.98;;;1.50;;
14348;SDS011;7258;50.376;8.742;2023-04-24T09:57:21;1.58;;;1.48;;
14348;SDS011;7258;50.376;8.742;2023-04-24T09:59:30;1.85;;;1.48;;
14348;SDS011;7258;50.376;8.742;2023-04-24T10:01:44;1.50;;;1.40;;
14348;SDS011;7258;50.376;8.742;2023-04-24T10:04:03;1.33;;;1.23;;
14348;SDS011;7258;50.376;8.742;2023-04-24T10:06:25;1.58;;;1.48;;
14348;SDS011;7258;50.376;8.742;2023-04-24T10:08:38;1.40;;;1.30;;
14348;SDS011;7258;50.376;8.742;2023-04-24T10:11:08;1.25;;;1.15;;
14348;SDS011;7258;50.376;8.742;2023-04-24T10:13:20;1.42;;;1.30;;
14348;SDS011;7258;50.376;8.742;2023-04-24T10:15:33;1.17;;;1.08;;
14348;SDS011;7258;50.376;8.742;2023-04-24T10:17:54;1.30;;;1.20;;
14348;SDS011;7258;50.376;8.742;2023-04-24T10:20:33;1.13;;;1.10;;
14348;SDS011;7258;50.376;8.742;2023-04-24T10:22:49;2.88;;;1.10;;
14348;SDS011;7258;50.376;8.742;2023-04-24T10:24:53;1.15;;;1.05;;
14348;SDS011;7258;50.376;8.742;2023-04-24T10:27:02;0.98;;;0.95;;
14348;SDS011;7258;50.376;8.742;2023-04-24T10:29:19;1.20;;;1.10;;
14348;SDS011;7258;50.376;8.742;2023-04-24T10:31:27;1.00;;;1.00;;
14348;SDS011;7258;50.376;8.742;2023-04-24T10:33:42;1.95;;;1.00;;
14348;SDS011;7258;50.376;8.742;2023-04-24T10:35:57;1.08;;;0.95;;
14348;SDS011;7258;50.376;8.742;2023-04-24T10:38:02;2.28;;;0.90;;
14348;SDS011;7258;50.376;8.742;2023-04-24T10:40:16;1.10;;;1.00;;
14348;SDS011;7258;50.376;8.742;2023-04-24T10:42:23;1.17;;;1.00;;
14348;SDS011;7258;50.376;8.742;2023-04-24T10:44:43;1.25;;;1.00;;
14348;SDS011;7258;50.376;8.742;2023-04-24T10:47:04;0.93;;;0.90;;
14348;SDS011;7258;50.376;8.742;2023-04-24T10:49:09;0.70;;;0.70;;
14348;SDS011;7258;50.376;8.742;2023-04-24T10:51:59;0.80;;;0.80;;
14348;SDS011;7258;50.376;8.742;2023-04-24T10:59:34;1.00;;;0.90;;
14348;SDS011;7258;50.376;8.742;2023-04-24T11:04:13;0.95;;;0.95;;
14348;SDS011;7258;50.376;8.742;2023-04-24T11:06:16;1.85;;;1.00;;
14348;SDS011;7258;50.376;8.742;2023-04-24T11:08:51;1.00;;;1.00;;
14348;SDS011;7258;50.376;8.742;2023-04-24T11:11:19;1.10;;;1.00;;
14348;SDS011;7258;50.376;8.742;2023-04-24T11:16:25;1.30;;;1.20;;
14348;SDS011;7258;50.376;8.742;2023-04-24T11:18:36;2.03;;;1.17;;
14348;SDS011;7258;50.376;8.742;2023-04-24T11:20:43;1.37;;;1.00;;
14348;SDS011;7258;50.376;8.742;2023-04-24T11:23:03;1.00;;;1.00;;
14348;SDS011;7258;50.376;8.742;2023-04-24T11:25:39;1.20;;;1.10;;
14348;SDS011;7258;50.376;8.742;2023-04-24T11:28:21;1.47;;;1.30;;
14348;SDS011;7258;50.376;8.742;2023-04-24T11:31:39;2.10;;;1.03;;
14348;SDS011;7258;50.376;8.742;2023-04-24T11:34:27;1.13;;;1.10;;
14348;SDS011;7258;50.376;8.742;2023-04-24T11:41:31;1.33;;;1.23;;
14348;SDS011;7258;50.376;8.742;2023-04-24T11:44:27;2.53;;;1.40;;
14348;SDS011;7258;50.376;8.742;2023-04-24T11:52:58;1.10;;;0.97;;
14348;SDS011;7258;50.376;8.742;2023-04-24T11:55:26;1.20;;;1.10;;
14348;SDS011;7258;50.376;8.742;2023-04-24T12:01:56;1.38;;;1.27;;
14348;SDS011;7258;50.376;8.742;2023-04-24T12:04:47;1.67;;;1.30;;
14348;SDS011;7258;50.376;8.742;2023-04-24T12:07:02;1.38;;;1.10;;
14348;SDS011;7258;50.376;8.742;2023-04-24T12:10:09;1.30;;;1.20;;
14348;SDS011;7258;50.376;8.742;2023-04-24T12:12:12;1.30;;;1.20;;
14348;SDS011;7258;50.376;8.742;2023-04-24T12:14:20;1.60;;;1.50;;
14348;SDS011;7258;50.376;8.742;2023-04-24T12:16:26;1.52;;;1.42;;
14348;SDS011;7258;50.376;8.742;2023-04-24T12:26:15;1.40;;;1.30;;
14348;SDS011;7258;50.376;8.742;2023-04-24T12:31:06;1.77;;;1.67;;
14348;SDS011;7258;50.376;8.742;2023-04-24T12:33:20;2.00;;;1.90;;
14348;SDS011;7258;50.376;8.742;2023-04-24T12:35:25;2.00;;;1.80;;
14348;SDS011;7258;50.376;8.742;2023-04-24T12:37:35;1.55;;;1.45;;
14348;SDS011;7258;50.376;8.742;2023-04-24T12:39:46;3.35;;;1.10;;
14348;SDS011;7258;50.376;8.742;2023-04-24T12:42:15;0.93;;;0.65;;
14348;SDS011;7258;50.376;8.742;2023-04-24T12:44:41;2.47;;;0.73;;
14348;SDS011;7258;50.376;8.742;2023-04-24T12:46:47;0.88;;;0.70;;
14348;SDS011;7258;50.376;8.742;2023-04-24T12:48:53;0.73;;;0.73;;
14348;SDS011;7258;50.376;8.742;2023-04-24T12:51:03;0.70;;;0.70;;
14348;SDS011;7258;50.376;8.742;2023-04-24T12:53:15;1.87;;;0.83;;
14348;SDS011;7258;50.376;8.742;2023-04-24T12:55:23;1.70;;;1.20;;
14348;SDS011;7258;50.376;8.742;2023-04-24T12:57:35;0.90;;;0.90;;
14348;SDS011;7258;50.376;8.742;2023-04-24T12:59:39;1.00;;;0.90;;
14348;SDS011;7258;50.376;8.742;2023-04-24T13:01:43;1.10;;;0.98;;
14348;SDS011;7258;50.376;8.742;2023-04-24T13:03:47;1.23;;;0.90;;
14348;SDS011;7258;50.376;8.742;2023-04-24T13:06:51;1.00;;;0.70;;
14348;SDS011;7258;50.376;8.742;2023-04-24T13:09:31;0.83;;;0.83;;
14348;SDS011;7258;50.376;8.742;2023-04-24T13:11:40;0.70;;;0.70;;
14348;SDS011;7258;50.376;8.742;2023-04-24T13:13:48;0.90;;;0.90;;
14348;SDS011;7258;50.376;8.742;2023-04-24T13:15:58;0.90;;;0.90;;
14348;SDS011;7258;50.376;8.742;2023-04-24T13:18:08;0.80;;;0.80;;
14348;SDS011;7258;50.376;8.742;2023-04-24T13:20:13;1.20;;;0.90;;
14348;SDS011;7258;50.376;8.742;2023-04-24T13:22:16;0.80;;;0.80;;
14348;SDS011;7258;50.376;8.742;2023-04-24T13:24:24;1.05;;;0.80;;
14348;SDS011;7258;50.376;8.742;2023-04-24T13:26:30;1.10;;;1.10;;
14348;SDS011;7258;50.376;8.742;2023-04-24T13:28:33;1.30;;;1.17;;
14348;SDS011;7258;50.376;8.742;2023-04-24T13:30:42;2.90;;;1.60;;
14348;SDS011;7258;50.376;8.742;2023-04-24T13:32:51;1.88;;;1.77;;
14348;SDS011;7258;50.376;8.742;2023-04-24T13:34:54;2.55;;;2.03;;
14348;SDS011;7258;50.376;8.742;2023-04-24T13:36:58;3.47;;;2.28;;
14348;SDS011;7258;50.376;8.742;2023-04-24T13:39:01;3.03;;;2.10;;
14348;SDS011;7258;50.376;8.742;2023-04-24T13:41:05;4.68;;;2.58;;
14348;SDS011;7258;50.376;8.742;2023-04-24T13:43:10;2.70;;;2.50;;
14348;SDS011;7258;50.376;8.742;2023-04-24T13:45:13;4.00;;;2.85;;
14348;SDS011;7258;50.376;8.742;2023-04-24T13:47:26;2.67;;;2.42;;
14348;SDS011;7258;50.376;8.742;2023-04-24T13:49:35;2.83;;;2.40;;
14348;SDS011;7258;50.376;8.742;2023-04-24T13:51:44;4.03;;;2.47;;
14348;SDS011;7258;50.376;8.742;2023-04-24T13:53:52;4.22;;;2.90;;
14348;SDS011;7258;50.376;8.742;2023-04-24T13:55:55;3.45;;;2.80;;
14348;SDS011;7258;50.376;8.742;2023-04-24T13:58:09;3.60;;;3.30;;
14348;SDS011;7258;50.376;8.742;2023-04-24T14:00:16;3.53;;;3.20;;
14348;SDS011;7258;50.376;8.742;2023-04-24T14:02:20;3.28;;;2.97;;
14348;SDS011;7258;50.376;8.742;2023-04-24T14:04:24;3.33;;;3.03;;
14348;SDS011;7258;50.376;8.742;2023-04-24T14:06:31;3.72;;;3.38;;
14348;SDS011;7258;50.376;8.742;2023-04-24T14:08:41;4.93;;;3.88;;
14348;SDS011;7258;50.376;8.742;2023-04-24T14:10:46;4.70;;;3.38;;
14348;SDS011;7258;50.376;8.742;2023-04-24T14:12:54;7.72;;;3.60;;
14348;SDS011;7258;50.376;8.742;2023-04-24T14:14:57;3.72;;;3.22;;
14348;SDS011;7258;50.376;8.742;2023-04-24T14:17:03;3.28;;;2.95;;
14348;SDS011;7258;50.376;8.742;2023-04-24T14:19:07;4.30;;;3.33;;
14348;SDS011;7258;50.376;8.742;2023-04-24T14:21:12;5.00;;;2.97;;
14348;SDS011;7258;50.376;8.742;2023-04-24T14:23:18;3.63;;;2.75;;
14348;SDS011;7258;50.376;8.742;2023-04-24T14:25:21;4.93;;;3.15;;
14348;SDS011;7258;50.376;8.742;2023-04-24T14:27:33;4.15;;;2.90;;
14348;SDS011;7258;50.376;8.742;2023-04-24T14:29:37;3.50;;;2.80;;